Superior, Wisconsin
Current Conditions -  °F | °C
As of 10:33 PM on Thursday 18 Dec 2014 (Local Time) from KDYT Reporting Station
Overcast Overcast  
Wind Chill: 25°   Ceiling: 1700
Heat Index: 25°   Visibility: 10mi
Dew Point: 21°   Wind: 0mph
Humidity: 86%   Direction: NA
Pressure: 30.28"   Gusts: NA
Location:  46.72°N, 92.1°W
Report Text: KDYT 190433Z AUTO 00000KT 10SM OVC017 M04/M06 A3028 RMK AO2
Loading
Personal Weather Stations






























Interactive Weather Map New forecast layout! Learn more

10-Day Weather Forecast

Advertisements
Track Severe Weather on mobile